sensor_id;sensor_type;location;lat;lon;timestamp;pressure;altitude;pressure_sealevel;temperature;humidity
41513;BME280;27244;59.940;30.280;2023-10-09T00:01:44;100299.78;;;22.77;35.29
41513;BME280;27244;59.940;30.280;2023-10-09T00:04:12;100297.44;;;22.75;35.17
41513;BME280;27244;59.940;30.280;2023-10-09T00:06:41;100299.47;;;22.75;35.08
41513;BME280;27244;59.940;30.280;2023-10-09T00:09:09;100297.44;;;22.75;35.25
41513;BME280;27244;59.940;30.280;2023-10-09T00:11:56;100304.28;;;22.74;35.16
41513;BME280;27244;59.940;30.280;2023-10-09T00:14:24;100295.41;;;22.76;34.34
41513;BME280;27244;59.940;30.280;2023-10-09T00:16:53;100301.81;;;22.76;34.91
41513;BME280;27244;59.940;30.280;2023-10-09T00:19:31;100303.81;;;22.76;34.46
41513;BME280;27244;59.940;30.280;2023-10-09T00:21:59;100316.34;;;22.75;34.77
41513;BME280;27244;59.940;30.280;2023-10-09T00:24:32;100314.31;;;22.75;34.57
41513;BME280;27244;59.940;30.280;2023-10-09T00:26:59;100304.28;;;22.74;34.46
41513;BME280;27244;59.940;30.280;2023-10-09T00:29:38;100298.06;;;22.67;34.75
41513;BME280;27244;59.940;30.280;2023-10-09T00:32:12;100308.44;;;22.70;36.44
41513;BME280;27244;59.940;30.280;2023-10-09T00:34:48;100309.66;;;22.69;36.76
41513;BME280;27244;59.940;30.280;2023-10-09T00:37:17;100309.66;;;22.69;36.74
41513;BME280;27244;59.940;30.280;2023-10-09T00:39:48;100314.94;;;22.67;37.18
41513;BME280;27244;59.940;30.280;2023-10-09T00:42:21;100316.16;;;22.66;36.59
41513;BME280;27244;59.940;30.280;2023-10-09T00:44:55;100316.97;;;22.66;36.51
41513;BME280;27244;59.940;30.280;2023-10-09T00:47:25;100320.47;;;22.70;36.31
41513;BME280;27244;59.940;30.280;2023-10-09T00:50:02;100308.88;;;22.68;36.13
41513;BME280;27244;59.940;30.280;2023-10-09T00:52:37;100319.59;;;22.73;36.40
41513;BME280;27244;59.940;30.280;2023-10-09T00:55:11;100324.31;;;22.76;36.75
41513;BME280;27244;59.940;30.280;2023-10-09T00:57:42;100319.84;;;22.79;36.76
41513;BME280;27244;59.940;30.280;2023-10-09T01:00:16;100327.91;;;22.77;36.92
41513;BME280;27244;59.940;30.280;2023-10-09T01:03:00;100328.59;;;22.81;36.85
41513;BME280;27244;59.940;30.280;2023-10-09T01:05:44;100317.44;;;22.77;36.99
41513;BME280;27244;59.940;30.280;2023-10-09T01:08:18;100320.25;;;22.77;37.42
41513;BME280;27244;59.940;30.280;2023-10-09T01:10:52;100324.19;;;22.80;37.32
41513;BME280;27244;59.940;30.280;2023-10-09T01:13:23;100327.81;;;22.80;37.45
41513;BME280;27244;59.940;30.280;2023-10-09T01:16:05;100330.97;;;22.82;37.55
41513;BME280;27244;59.940;30.280;2023-10-09T01:18:39;100338.50;;;22.85;37.66
41513;BME280;27244;59.940;30.280;2023-10-09T01:21:07;100336.13;;;22.84;37.76
41513;BME280;27244;59.940;30.280;2023-10-09T01:23:40;100319.16;;;22.75;37.92
41513;BME280;27244;59.940;30.280;2023-10-09T01:26:24;100356.94;;;22.86;38.01
41513;BME280;27244;59.940;30.280;2023-10-09T01:28:51;100346.16;;;22.85;38.24
41513;BME280;27244;59.940;30.280;2023-10-09T01:31:23;100354.13;;;22.86;38.17
41513;BME280;27244;59.940;30.280;2023-10-09T01:33:52;100360.22;;;22.85;38.33
41513;BME280;27244;59.940;30.280;2023-10-09T01:36:25;100348.28;;;22.81;38.40
41513;BME280;27244;59.940;30.280;2023-10-09T01:39:00;100342.88;;;22.86;38.41
41513;BME280;27244;59.940;30.280;2023-10-09T01:41:27;100360.53;;;22.87;38.60
41513;BME280;27244;59.940;30.280;2023-10-09T01:44:00;100353.00;;;22.84;38.53
41513;BME280;27244;59.940;30.280;2023-10-09T01:46:36;100364.94;;;22.88;38.69
41513;BME280;27244;59.940;30.280;2023-10-09T01:49:03;100368.19;;;22.86;38.72
41513;BME280;27244;59.940;30.280;2023-10-09T01:51:43;100360.22;;;22.85;38.91
41513;BME280;27244;59.940;30.280;2023-10-09T01:54:11;100361.69;;;22.89;38.97
41513;BME280;27244;59.940;30.280;2023-10-09T01:56:59;100360.09;;;22.88;39.09
41513;BME280;27244;59.940;30.280;2023-10-09T01:59:31;100363.72;;;22.89;38.97
41513;BME280;27244;59.940;30.280;2023-10-09T02:01:58;100352.47;;;22.89;39.10
41513;BME280;27244;59.940;30.280;2023-10-09T02:04:35;100348.84;;;22.88;39.04
41513;BME280;27244;59.940;30.280;2023-10-09T02:07:03;100359.63;;;22.90;39.16
41513;BME280;27244;59.940;30.280;2023-10-09T02:09:35;100357.97;;;22.92;39.19
41513;BME280;27244;59.940;30.280;2023-10-09T02:12:10;100364.81;;;22.91;39.15
41513;BME280;27244;59.940;30.280;2023-10-09T02:14:38;100367.63;;;22.91;39.34
41513;BME280;27244;59.940;30.280;2023-10-09T02:17:08;100359.19;;;22.91;39.14
41513;BME280;27244;59.940;30.280;2023-10-09T02:19:44;100356.38;;;22.91;39.42
41513;BME280;27244;59.940;30.280;2023-10-09T02:22:14;100367.97;;;22.93;39.49
41513;BME280;27244;59.940;30.280;2023-10-09T02:24:44;100355.97;;;22.93;39.43
41513;BME280;27244;59.940;30.280;2023-10-09T02:27:24;100370.34;;;22.95;39.60
41513;BME280;27244;59.940;30.280;2023-10-09T02:30:12;100371.13;;;22.95;39.66
41513;BME280;27244;59.940;30.280;2023-10-09T02:32:46;100359.53;;;22.93;39.82
41513;BME280;27244;59.940;30.280;2023-10-09T02:35:19;100359.53;;;22.93;39.75
41513;BME280;27244;59.940;30.280;2023-10-09T02:38:02;100368.88;;;22.90;39.81
41513;BME280;27244;59.940;30.280;2023-10-09T02:40:34;100369.91;;;22.96;39.84
41513;BME280;27244;59.940;30.280;2023-10-09T02:43:18;100361.91;;;22.95;40.00
41513;BME280;27244;59.940;30.280;2023-10-09T02:45:46;100359.88;;;22.95;39.97
41513;BME280;27244;59.940;30.280;2023-10-09T02:48:17;100371.13;;;22.95;39.99
41513;BME280;27244;59.940;30.280;2023-10-09T02:50:46;100375.53;;;22.96;39.95
41513;BME280;27244;59.940;30.280;2023-10-09T02:53:16;100369.91;;;22.96;40.05
41513;BME280;27244;59.940;30.280;2023-10-09T02:55:46;100363.03;;;22.97;40.15
41513;BME280;27244;59.940;30.280;2023-10-09T02:58:37;100372.25;;;22.98;40.25
41513;BME280;27244;59.940;30.280;2023-10-09T03:01:10;100366.41;;;23.05;40.06
41513;BME280;27244;59.940;30.280;2023-10-09T03:03:40;100378.56;;;23.02;40.21
41513;BME280;27244;59.940;30.280;2023-10-09T03:06:11;100369.81;;;23.00;40.25
41513;BME280;27244;59.940;30.280;2023-10-09T03:08:38;100375.31;;;23.03;40.27
41513;BME280;27244;59.940;30.280;2023-10-09T03:11:08;100395.69;;;23.08;40.19
41513;BME280;27244;59.940;30.280;2023-10-09T03:13:41;100378.81;;;23.08;40.27
41513;BME280;27244;59.940;30.280;2023-10-09T03:16:10;100391.72;;;23.05;40.57
41513;BME280;27244;59.940;30.280;2023-10-09T03:18:46;100382.06;;;23.06;40.46
41513;BME280;27244;59.940;30.280;2023-10-09T03:21:13;100365.94;;;22.94;40.53
41513;BME280;27244;59.940;30.280;2023-10-09T03:23:43;100383.28;;;23.05;40.60
41513;BME280;27244;59.940;30.280;2023-10-09T03:26:12;100392.53;;;23.05;40.53
41513;BME280;27244;59.940;30.280;2023-10-09T03:28:39;100391.72;;;23.05;40.55
41513;BME280;27244;59.940;30.280;2023-10-09T03:31:08;100391.72;;;23.05;40.65
41513;BME280;27244;59.940;30.280;2023-10-09T03:33:35;100388.13;;;23.04;40.53
41513;BME280;27244;59.940;30.280;2023-10-09T03:36:03;100389.03;;;23.01;40.68
41513;BME280;27244;59.940;30.280;2023-10-09T03:38:33;100396.91;;;23.07;40.57
41513;BME280;27244;59.940;30.280;2023-10-09T03:41:02;100383.66;;;23.07;40.71
41513;BME280;27244;59.940;30.280;2023-10-09T03:43:33;100382.50;;;23.04;40.75
41513;BME280;27244;59.940;30.280;2023-10-09T03:46:04;100380.38;;;23.09;40.90
41513;BME280;27244;59.940;30.280;2023-10-09T03:48:40;100378.47;;;23.05;40.91
41513;BME280;27244;59.940;30.280;2023-10-09T03:51:09;100377.22;;;23.07;40.86
41513;BME280;27244;59.940;30.280;2023-10-09T03:53:39;100378.81;;;23.08;40.95
41513;BME280;27244;59.940;30.280;2023-10-09T03:56:06;100383.97;;;23.09;41.02
41513;BME280;27244;59.940;30.280;2023-10-09T03:58:39;100385.88;;;23.12;41.08
41513;BME280;27244;59.940;30.280;2023-10-09T04:01:09;100387.16;;;23.11;41.05
41513;BME280;27244;59.940;30.280;2023-10-09T04:03:48;100377.91;;;23.11;41.16
41513;BME280;27244;59.940;30.280;2023-10-09T04:06:15;100377.13;;;23.10;41.15
41513;BME280;27244;59.940;30.280;2023-10-09T04:08:43;100383.06;;;23.12;41.26
41513;BME280;27244;59.940;30.280;2023-10-09T04:11:14;100389.97;;;23.11;41.31
41513;BME280;27244;59.940;30.280;2023-10-09T04:13:50;100392.78;;;23.11;41.18
41513;BME280;27244;59.940;30.280;2023-10-09T04:16:18;100393.22;;;23.10;41.27
41513;BME280;27244;59.940;30.280;2023-10-09T04:19:16;100382.19;;;23.02;41.11
41513;BME280;27244;59.940;30.280;2023-10-09T04:21:47;100385.66;;;23.07;41.29
41513;BME280;27244;59.940;30.280;2023-10-09T04:24:14;100391.63;;;23.09;41.36
41513;BME280;27244;59.940;30.280;2023-10-09T04:26:50;100384.34;;;23.11;41.36
41513;BME280;27244;59.940;30.280;2023-10-09T04:29:24;100398.41;;;23.11;41.42
41513;BME280;27244;59.940;30.280;2023-10-09T04:31:53;100392.91;;;23.33;40.84
41513;BME280;27244;59.940;30.280;2023-10-09T04:34:22;100393.22;;;23.10;41.20
41513;BME280;27244;59.940;30.280;2023-10-09T04:36:55;100403.91;;;23.15;41.40
41513;BME280;27244;59.940;30.280;2023-10-09T04:39:26;100411.56;;;23.14;41.32
41513;BME280;27244;59.940;30.280;2023-10-09T04:42:03;100405.94;;;23.14;41.55
41513;BME280;27244;59.940;30.280;2023-10-09T04:44:48;100400.63;;;23.16;41.35
41513;BME280;27244;59.940;30.280;2023-10-09T04:47:34;100403.91;;;23.15;41.90
41513;BME280;27244;59.940;30.280;2023-10-09T04:50:04;100406.03;;;23.11;41.61
41513;BME280;27244;59.940;30.280;2023-10-09T04:52:37;100412.34;;;23.15;41.61
41513;BME280;27244;59.940;30.280;2023-10-09T04:55:19;100414.69;;;23.16;41.71
41513;BME280;27244;59.940;30.280;2023-10-09T04:57:46;100410.66;;;23.17;41.78
41513;BME280;27244;59.940;30.280;2023-10-09T05:00:28;100413.81;;;23.19;41.72
41513;BME280;27244;59.940;30.280;2023-10-09T05:03:12;100417.88;;;23.18;41.70
41513;BME280;27244;59.940;30.280;2023-10-09T05:05:52;100413.91;;;23.16;41.72
41513;BME280;27244;59.940;30.280;2023-10-09T05:08:26;100429.13;;;23.18;41.69
41513;BME280;27244;59.940;30.280;2023-10-09T05:10:57;100423.94;;;23.17;41.70
41513;BME280;27244;59.940;30.280;2023-10-09T05:13:41;100419.78;;;23.21;42.28
41513;BME280;27244;59.940;30.280;2023-10-09T05:16:14;100418.19;;;23.20;43.53
41513;BME280;27244;59.940;30.280;2023-10-09T05:18:44;100417.66;;;23.25;42.67
41513;BME280;27244;59.940;30.280;2023-10-09T05:21:10;100426.88;;;23.26;42.15
41513;BME280;27244;59.940;30.280;2023-10-09T05:23:51;100414.25;;;23.30;41.82
41513;BME280;27244;59.940;30.280;2023-10-09T05:26:34;100427.09;;;23.31;41.95
41513;BME280;27244;59.940;30.280;2023-10-09T05:29:17;100436.88;;;23.27;41.95
41513;BME280;27244;59.940;30.280;2023-10-09T05:31:46;100422.81;;;23.27;42.13
41513;BME280;27244;59.940;30.280;2023-10-09T05:34:23;100434.88;;;23.27;42.26
41513;BME280;27244;59.940;30.280;2023-10-09T05:36:51;100437.25;;;23.29;42.20
41513;BME280;27244;59.940;30.280;2023-10-09T05:39:24;100427.66;;;23.26;42.33
41513;BME280;27244;59.940;30.280;2023-10-09T05:42:06;100429.34;;;23.24;42.12
41513;BME280;27244;59.940;30.280;2023-10-09T05:44:35;100440.16;;;23.25;42.19
41513;BME280;27244;59.940;30.280;2023-10-09T05:47:43;100435.34;;;23.26;42.21
41513;BME280;27244;59.940;30.280;2023-10-09T05:50:18;100434.66;;;23.22;42.21
41513;BME280;27244;59.940;30.280;2023-10-09T05:53:01;100438.69;;;23.21;42.34
41513;BME280;27244;59.940;30.280;2023-10-09T05:55:35;100429.91;;;23.19;42.48
41513;BME280;27244;59.940;30.280;2023-10-09T05:58:31;100446.34;;;23.20;42.31
41513;BME280;27244;59.940;30.280;2023-10-09T06:01:24;100444.31;;;23.21;42.18
41513;BME280;27244;59.940;30.280;2023-10-09T06:04:09;100444.75;;;23.19;42.27
41513;BME280;27244;59.940;30.280;2023-10-09T06:06:43;100453.31;;;23.16;42.50
41513;BME280;27244;59.940;30.280;2023-10-09T06:09:10;100448.56;;;23.13;42.51
41513;BME280;27244;59.940;30.280;2023-10-09T06:11:51;100450.63;;;23.37;41.74
41513;BME280;27244;59.940;30.280;2023-10-09T06:14:44;100450.84;;;23.18;42.56
41513;BME280;27244;59.940;30.280;2023-10-09T06:17:24;100448.13;;;23.14;42.62
41513;BME280;27244;59.940;30.280;2023-10-09T06:19:54;100445.31;;;23.14;42.65
41513;BME280;27244;59.940;30.280;2023-10-09T06:22:24;100447.94;;;23.34;41.71
41513;BME280;27244;59.940;30.280;2023-10-09T06:25:08;100433.94;;;23.05;42.54
41513;BME280;27244;59.940;30.280;2023-10-09T06:27:44;100439.81;;;23.11;43.01
41513;BME280;27244;59.940;30.280;2023-10-09T06:30:27;100450.50;;;23.16;42.97
41513;BME280;27244;59.940;30.280;2023-10-09T06:32:54;100458.94;;;23.16;43.08
41513;BME280;27244;59.940;30.280;2023-10-09T06:35:48;100460.53;;;23.17;42.97
41513;BME280;27244;59.940;30.280;2023-10-09T06:38:20;100452.06;;;23.17;43.10
41513;BME280;27244;59.940;30.280;2023-10-09T06:40:50;100452.19;;;23.13;43.14
41513;BME280;27244;59.940;30.280;2023-10-09T06:43:34;100454.09;;;23.16;43.16
41513;BME280;27244;59.940;30.280;2023-10-09T06:46:16;100459.19;;;23.21;43.12
41513;BME280;27244;59.940;30.280;2023-10-09T06:49:00;100453.19;;;23.19;43.15
41513;BME280;27244;59.940;30.280;2023-10-09T06:51:48;100462.00;;;23.21;43.36
41513;BME280;27244;59.940;30.280;2023-10-09T06:54:21;100447.78;;;23.12;43.11
41513;BME280;27244;59.940;30.280;2023-10-09T06:56:51;100459.63;;;23.20;43.21
41513;BME280;27244;59.940;30.280;2023-10-09T06:59:35;100464.03;;;23.21;43.38
41513;BME280;27244;59.940;30.280;2023-10-09T07:02:29;100454.34;;;23.22;43.18
41513;BME280;27244;59.940;30.280;2023-10-09T07:04:57;100449.16;;;23.20;43.25
41513;BME280;27244;59.940;30.280;2023-10-09T07:07:37;100451.53;;;23.22;43.22
41513;BME280;27244;59.940;30.280;2023-10-09T07:10:16;100462.09;;;23.18;43.18
41513;BME280;27244;59.940;30.280;2023-10-09T07:13:05;100457.16;;;23.22;43.08
41513;BME280;27244;59.940;30.280;2023-10-09T07:15:34;100463.91;;;23.24;43.24
41513;BME280;27244;59.940;30.280;2023-10-09T07:18:19;100467.63;;;23.21;43.56
41513;BME280;27244;59.940;30.280;2023-10-09T07:20:49;100476.06;;;23.21;43.04
41513;BME280;27244;59.940;30.280;2023-10-09T07:23:38;100482.81;;;23.24;42.12
41513;BME280;27244;59.940;30.280;2023-10-09T07:26:17;100485.63;;;23.24;42.16
41513;BME280;27244;59.940;30.280;2023-10-09T07:28:51;100479.31;;;23.20;42.00
41513;BME280;27244;59.940;30.280;2023-10-09T07:31:26;100477.41;;;23.17;41.66
41513;BME280;27244;59.940;30.280;2023-10-09T07:33:54;100495.06;;;23.17;41.56
41513;BME280;27244;59.940;30.280;2023-10-09T07:36:24;100484.94;;;23.20;40.90
41513;BME280;27244;59.940;30.280;2023-10-09T07:39:04;100470.75;;;23.11;41.25
41513;BME280;27244;59.940;30.280;2023-10-09T07:41:42;100491.84;;;23.19;40.94
41513;BME280;27244;59.940;30.280;2023-10-09T07:44:22;100491.38;;;23.20;40.27
41513;BME280;27244;59.940;30.280;2023-10-09T07:47:04;100486.53;;;23.21;39.79
41513;BME280;27244;59.940;30.280;2023-10-09T07:49:43;100490.13;;;23.21;39.46
41513;BME280;27244;59.940;30.280;2023-10-09T07:52:14;100492.34;;;23.42;40.07
41513;BME280;27244;59.940;30.280;2023-10-09T07:54:43;100504.91;;;23.25;39.06
41513;BME280;27244;59.940;30.280;2023-10-09T07:57:20;100497.34;;;23.22;38.79
41513;BME280;27244;59.940;30.280;2023-10-09T07:59:51;100496.56;;;23.22;38.54
41513;BME280;27244;59.940;30.280;2023-10-09T08:02:28;100500.94;;;23.23;38.10
41513;BME280;27244;59.940;30.280;2023-10-09T08:05:00;100490.94;;;23.22;37.87
41513;BME280;27244;59.940;30.280;2023-10-09T08:07:32;100502.19;;;23.22;37.79
41513;BME280;27244;59.940;30.280;2023-10-09T08:10:05;100498.47;;;23.25;37.74
41513;BME280;27244;59.940;30.280;2023-10-09T08:12:49;100509.38;;;23.23;37.59
41513;BME280;27244;59.940;30.280;2023-10-09T08:15:46;100515.78;;;23.23;37.52
41513;BME280;27244;59.940;30.280;2023-10-09T08:18:21;100516.59;;;23.24;37.04
41513;BME280;27244;59.940;30.280;2023-10-09T08:20:55;100509.03;;;23.21;36.87
41513;BME280;27244;59.940;30.280;2023-10-09T08:23:39;100508.16;;;23.24;36.83
41513;BME280;27244;59.940;30.280;2023-10-09T08:26:18;100501.72;;;23.23;36.85
41513;BME280;27244;59.940;30.280;2023-10-09T08:28:56;100515.78;;;23.23;36.57
41513;BME280;27244;59.940;30.280;2023-10-09T08:31:39;100515.78;;;23.23;36.64
41513;BME280;27244;59.940;30.280;2023-10-09T08:34:12;100520.63;;;23.23;36.54
41513;BME280;27244;59.940;30.280;2023-10-09T08:36:50;100519.41;;;23.24;36.65
41513;BME280;27244;59.940;30.280;2023-10-09T08:39:22;100519.88;;;23.22;36.78
41513;BME280;27244;59.940;30.280;2023-10-09T08:41:54;100523.44;;;23.23;37.16
41513;BME280;27244;59.940;30.280;2023-10-09T08:44:24;100520.72;;;23.19;37.59
41513;BME280;27244;59.940;30.280;2023-10-09T08:46:54;100520.28;;;23.21;37.94
41513;BME280;27244;59.940;30.280;2023-10-09T08:49:23;100522.41;;;23.17;38.20
41513;BME280;27244;59.940;30.280;2023-10-09T08:51:50;100523.53;;;23.19;38.15
41513;BME280;27244;59.940;30.280;2023-10-09T08:54:19;100520.72;;;23.19;38.19
41513;BME280;27244;59.940;30.280;2023-10-09T08:56:46;100515.00;;;23.23;38.33
41513;BME280;27244;59.940;30.280;2023-10-09T08:59:18;100519.28;;;23.27;38.35
41513;BME280;27244;59.940;30.280;2023-10-09T09:01:46;100520.19;;;23.24;38.52
41513;BME280;27244;59.940;30.280;2023-10-09T09:04:39;100527.88;;;23.36;38.39
41513;BME280;27244;59.940;30.280;2023-10-09T09:07:21;100528.63;;;23.24;38.80
41513;BME280;27244;59.940;30.280;2023-10-09T09:09:54;100530.13;;;23.29;39.08
41513;BME280;27244;59.940;30.280;2023-10-09T09:12:23;100532.69;;;23.23;38.97
41513;BME280;27244;59.940;30.280;2023-10-09T09:14:52;100525.59;;;23.19;39.14
41513;BME280;27244;59.940;30.280;2023-10-09T09:17:22;100542.38;;;23.22;39.00
41513;BME280;27244;59.940;30.280;2023-10-09T09:19:53;100540.00;;;23.21;39.18
41513;BME280;27244;59.940;30.280;2023-10-09T09:22:20;100535.28;;;23.18;39.42
41513;BME280;27244;59.940;30.280;2023-10-09T09:24:57;100539.47;;;23.26;39.35
41513;BME280;27244;59.940;30.280;2023-10-09T09:27:43;100531.38;;;23.40;38.90
41513;BME280;27244;59.940;30.280;2023-10-09T09:30:27;100538.09;;;23.30;39.50
41513;BME280;27244;59.940;30.280;2023-10-09T09:33:00;100542.47;;;23.19;39.57
41513;BME280;27244;59.940;30.280;2023-10-09T09:35:56;100543.94;;;23.23;39.47
41513;BME280;27244;59.940;30.280;2023-10-09T09:38:26;100539.31;;;23.17;39.62
41513;BME280;27244;59.940;30.280;2023-10-09T09:40:56;100547.75;;;23.17;39.81
41513;BME280;27244;59.940;30.280;2023-10-09T09:43:29;100551.34;;;23.17;39.89
41513;BME280;27244;59.940;30.280;2023-10-09T09:46:03;100548.88;;;23.19;40.04
41513;BME280;27244;59.940;30.280;2023-10-09T09:48:37;100546.41;;;23.21;39.70
41513;BME280;27244;59.940;30.280;2023-10-09T09:51:12;100555.06;;;23.14;40.00
41513;BME280;27244;59.940;30.280;2023-10-09T09:53:41;100561.03;;;23.16;40.20
41513;BME280;27244;59.940;30.280;2023-10-09T09:56:14;100556.19;;;23.17;40.08
41513;BME280;27244;59.940;30.280;2023-10-09T09:58:46;100543.44;;;23.12;40.21
41513;BME280;27244;59.940;30.280;2023-10-09T10:01:23;100560.03;;;23.23;40.16
41513;BME280;27244;59.940;30.280;2023-10-09T10:03:56;100554.50;;;23.19;40.26
41513;BME280;27244;59.940;30.280;2023-10-09T10:06:25;100554.59;;;23.16;40.38
41513;BME280;27244;59.940;30.280;2023-10-09T10:08:55;100554.16;;;23.17;40.36
41513;BME280;27244;59.940;30.280;2023-10-09T10:11:41;100548.22;;;23.28;40.23
41513;BME280;27244;59.940;30.280;2023-10-09T10:14:10;100546.72;;;23.11;40.51
41513;BME280;27244;59.940;30.280;2023-10-09T10:17:01;100553.06;;;23.27;40.34
41513;BME280;27244;59.940;30.280;2023-10-09T10:20:00;100555.09;;;23.27;40.51
41513;BME280;27244;59.940;30.280;2023-10-09T10:22:48;100548.19;;;23.15;40.56
41513;BME280;27244;59.940;30.280;2023-10-09T10:25:34;100544.19;;;23.29;40.42
41513;BME280;27244;59.940;30.280;2023-10-09T10:28:21;100553.06;;;23.27;40.61
41513;BME280;27244;59.940;30.280;2023-10-09T10:31:03;100543.00;;;23.14;40.84
41513;BME280;27244;59.940;30.280;2023-10-09T10:34:05;100554.19;;;23.30;40.65
41513;BME280;27244;59.940;30.280;2023-10-09T10:36:36;100540.91;;;23.18;40.71
41513;BME280;27244;59.940;30.280;2023-10-09T10:39:08;100551.34;;;23.17;40.74
41513;BME280;27244;59.940;30.280;2023-10-09T10:41:37;100558.66;;;23.15;40.94
41513;BME280;27244;59.940;30.280;2023-10-09T10:44:24;100553.16;;;23.24;41.03
41513;BME280;27244;59.940;30.280;2023-10-09T10:47:02;100558.91;;;23.20;41.10
41513;BME280;27244;59.940;30.280;2023-10-09T10:49:32;100554.59;;;23.16;41.05
41513;BME280;27244;59.940;30.280;2023-10-09T10:52:03;100557.78;;;23.18;41.03
41513;BME280;27244;59.940;30.280;2023-10-09T10:54:44;100562.50;;;23.21;40.91
41513;BME280;27244;59.940;30.280;2023-10-09T10:57:35;100555.97;;;23.24;41.00
41513;BME280;27244;59.940;30.280;2023-10-09T11:00:20;100560.13;;;23.19;41.60
41513;BME280;27244;59.940;30.280;2023-10-09T11:03:04;100567.81;;;23.19;41.52
41513;BME280;27244;59.940;30.280;2023-10-09T11:05:44;100561.38;;;23.18;41.52
41513;BME280;27244;59.940;30.280;2023-10-09T11:08:16;100547.75;;;23.17;41.72
41513;BME280;27244;59.940;30.280;2023-10-09T11:10:49;100551.00;;;23.15;41.71
41513;BME280;27244;59.940;30.280;2023-10-09T11:13:23;100545.28;;;23.19;41.51
41513;BME280;27244;59.940;30.280;2023-10-09T11:15:59;100556.63;;;23.15;41.80
41513;BME280;27244;59.940;30.280;2023-10-09T11:18:40;100555.75;;;23.18;41.86
41513;BME280;27244;59.940;30.280;2023-10-09T11:21:14;100554.41;;;23.23;41.84
41513;BME280;27244;59.940;30.280;2023-10-09T11:23:56;100556.56;;;23.19;41.92
41513;BME280;27244;59.940;30.280;2023-10-09T11:26:47;100556.88;;;23.21;42.00
41513;BME280;27244;59.940;30.280;2023-10-09T11:29:21;100561.38;;;23.18;41.99
41513;BME280;27244;59.940;30.280;2023-10-09T11:32:17;100567.34;;;23.20;42.00
41513;BME280;27244;59.940;30.280;2023-10-09T11:34:43;100565.84;;;23.16;41.97
41513;BME280;27244;59.940;30.280;2023-10-09T11:37:20;100571.75;;;23.21;42.02
41513;BME280;27244;59.940;30.280;2023-10-09T11:40:05;100578.59;;;23.20;42.09
41513;BME280;27244;59.940;30.280;2023-10-09T11:42:48;100573.75;;;23.21;42.14
41513;BME280;27244;59.940;30.280;2023-10-09T11:45:27;100564.00;;;23.25;41.81
41513;BME280;27244;59.940;30.280;2023-10-09T11:47:56;100577.00;;;23.19;41.91
41513;BME280;27244;59.940;30.280;2023-10-09T11:50:38;100569.53;;;23.29;41.91
41513;BME280;27244;59.940;30.280;2023-10-09T11:53:10;100582.53;;;23.23;42.00
41513;BME280;27244;59.940;30.280;2023-10-09T11:55:59;100583.00;;;23.21;42.05
41513;BME280;27244;59.940;30.280;2023-10-09T11:58:26;100582.22;;;23.21;42.11
41513;BME280;27244;59.940;30.280;2023-10-09T12:00:54;100575.78;;;23.20;42.01
41513;BME280;27244;59.940;30.280;2023-10-09T12:03:25;100570.03;;;23.11;41.97
41513;BME280;27244;59.940;30.280;2023-10-09T12:05:56;100579.72;;;23.23;42.08
41513;BME280;27244;59.940;30.280;2023-10-09T12:08:25;100573.75;;;23.21;41.98
41513;BME280;27244;59.940;30.280;2023-10-09T12:10:54;100587.03;;;23.20;42.10
41513;BME280;27244;59.940;30.280;2023-10-09T12:13:22;100569.72;;;23.22;42.03
41513;BME280;27244;59.940;30.280;2023-10-09T12:15:50;100582.53;;;23.23;42.21
41513;BME280;27244;59.940;30.280;2023-10-09T12:18:20;100575.69;;;23.24;42.23
41513;BME280;27244;59.940;30.280;2023-10-09T12:20:47;100576.91;;;23.23;42.30
41513;BME280;27244;59.940;30.280;2023-10-09T12:23:18;100579.28;;;23.24;42.32
41513;BME280;27244;59.940;30.280;2023-10-09T12:25:48;100572.44;;;23.25;42.21
41513;BME280;27244;59.940;30.280;2023-10-09T12:28:15;100579.72;;;23.23;42.33
41513;BME280;27244;59.940;30.280;2023-10-09T12:30:46;100582.53;;;23.23;42.25
41513;BME280;27244;59.940;30.280;2023-10-09T12:33:16;100576.25;;;23.19;42.25
41513;BME280;27244;59.940;30.280;2023-10-09T12:35:44;100578.16;;;23.22;42.27
41513;BME280;27244;59.940;30.280;2023-10-09T12:38:13;100581.31;;;23.24;42.16
41513;BME280;27244;59.940;30.280;2023-10-09T12:40:44;100584.94;;;23.24;42.23
41513;BME280;27244;59.940;30.280;2023-10-09T12:43:18;100584.94;;;23.24;42.25
41513;BME280;27244;59.940;30.280;2023-10-09T12:45:47;100585.72;;;23.25;42.04
41513;BME280;27244;59.940;30.280;2023-10-09T12:48:14;100585.34;;;23.23;42.12
41513;BME280;27244;59.940;30.280;2023-10-09T12:50:41;100577.47;;;23.18;42.18
41513;BME280;27244;59.940;30.280;2023-10-09T12:53:10;100593.38;;;23.24;42.15
41513;BME280;27244;59.940;30.280;2023-10-09T12:55:43;100582.09;;;23.24;42.08
41513;BME280;27244;59.940;30.280;2023-10-09T12:58:11;100579.50;;;23.17;42.13
41513;BME280;27244;59.940;30.280;2023-10-09T13:00:42;100573.97;;;23.14;42.15
41513;BME280;27244;59.940;30.280;2023-10-09T13:03:14;100588.97;;;23.23;42.26
41513;BME280;27244;59.940;30.280;2023-10-09T13:05:45;100596.97;;;23.25;42.18
41513;BME280;27244;59.940;30.280;2023-10-09T13:08:21;100584.22;;;23.20;42.29
41513;BME280;27244;59.940;30.280;2023-10-09T13:10:50;100595.38;;;23.24;42.15
41513;BME280;27244;59.940;30.280;2023-10-09T13:13:27;100594.16;;;23.25;42.20
41513;BME280;27244;59.940;30.280;2023-10-09T13:16:09;100593.25;;;23.28;42.23
41513;BME280;27244;59.940;30.280;2023-10-09T13:18:42;100583.09;;;23.18;42.26
41513;BME280;27244;59.940;30.280;2023-10-09T13:21:15;100585.03;;;23.21;42.35